Time;durP1;ratioP1;P1;durP2;ratioP2;P2;SDS_P1;SDS_P2;PMS_P1;PMS_P2;Temp;Humidity;BMP_temperature;BMP_pressure;BME280_temperature;BME280_humidity;BME280_pressure;Samples;Min_cycle;Max_cycle;Signal;HPM_P1;HPM_P2
2021/03/12 00:02:01;;;;;;;0.40;0.20;;;7.40;99.90;;;;;;5029164;28;20404;-70
2021/03/12 00:04:27;;;;;;;0.40;0.23;;;7.40;99.90;;;;;;5013704;28;20420;-70
2021/03/12 00:06:53;;;;;;;0.60;0.30;;;7.00;99.90;;;;;;5012967;28;20387;-67
2021/03/12 00:09:18;;;;;;;0.50;0.30;;;7.20;99.90;;;;;;5013440;28;20385;-68
2021/03/12 00:11:44;;;;;;;0.50;0.30;;;7.80;99.90;;;;;;5012538;28;20424;-69
2021/03/12 00:14:11;;;;;;;0.40;0.30;;;7.50;99.90;;;;;;5013562;28;20377;-68
2021/03/12 00:16:37;;;;;;;3.20;0.60;;;7.80;99.90;;;;;;5011795;28;20883;-69
2021/03/12 00:19:03;;;;;;;0.57;0.40;;;7.60;99.90;;;;;;5013433;28;20826;-69
2021/03/12 00:21:29;;;;;;;1.80;0.50;;;8.30;99.90;;;;;;5013392;28;20427;-69
2021/03/12 00:23:55;;;;;;;1.60;0.40;;;8.00;99.90;;;;;;5013026;28;20381;-69
2021/03/12 00:26:21;;;;;;;1.10;0.40;;;7.90;99.90;;;;;;5013418;28;20405;-69
2021/03/12 00:28:46;;;;;;;0.50;0.38;;;8.10;99.90;;;;;;5012503;28;20754;-70
2021/03/12 00:31:12;;;;;;;1.10;0.50;;;8.00;99.90;;;;;;5010568;28;20500;-69
2021/03/12 00:33:39;;;;;;;1.00;0.43;;;8.00;99.90;;;;;;4992763;28;20386;-69
2021/03/12 00:36:05;;;;;;;0.85;0.28;;;8.30;99.90;;;;;;4993463;28;20410;-68
2021/03/12 00:38:31;;;;;;;0.90;0.30;;;7.20;99.90;;;;;;4993376;28;20395;-72
2021/03/12 00:40:59;;;;;;;2.80;0.40;;;7.30;99.90;;;;;;4992830;28;20473;-68
2021/03/12 00:43:25;;;;;;;1.10;0.50;;;7.20;99.90;;;;;;5008434;28;20949;-68
2021/03/12 00:45:57;;;;;;;2.10;0.60;;;7.40;99.90;;;;;;4992583;28;20494;-68
2021/03/12 00:48:24;;;;;;;0.70;0.30;;;7.30;99.90;;;;;;4993059;28;20379;-68
2021/03/12 00:50:49;;;;;;;1.50;0.40;;;7.40;99.90;;;;;;5007593;28;20433;-69
2021/03/12 00:53:15;;;;;;;0.90;0.40;;;7.00;99.90;;;;;;4993397;28;20375;-68
2021/03/12 00:55:41;;;;;;;0.40;0.30;;;7.60;99.90;;;;;;4992653;28;20397;-68
2021/03/12 00:58:06;;;;;;;0.63;0.40;;;7.80;99.90;;;;;;5008106;28;20418;-69
2021/03/12 01:00:34;;;;;;;1.00;0.50;;;7.80;99.90;;;;;;4992455;28;20442;-72
2021/03/12 01:03:00;;;;;;;0.40;0.30;;;7.00;99.90;;;;;;4992666;28;20387;-68
2021/03/12 01:05:26;;;;;;;1.00;0.40;;;7.30;99.90;;;;;;4992884;28;20404;-68
2021/03/12 01:07:52;;;;;;;1.70;0.50;;;7.50;99.90;;;;;;4992194;28;20390;-69
2021/03/12 01:10:20;;;;;;;0.50;0.30;;;7.10;99.90;;;;;;4992590;28;20824;-68
2021/03/12 01:12:46;;;;;;;1.40;0.38;;;7.60;99.90;;;;;;4992331;28;20401;-68
2021/03/12 01:15:16;;;;;;;1.70;0.40;;;7.60;99.90;;;;;;4992420;28;20387;-69
2021/03/12 01:17:43;;;;;;;2.20;0.40;;;7.20;99.90;;;;;;4991913;28;20396;-68
2021/03/12 01:20:22;;;;;;;0.40;0.30;;;7.60;99.90;;;;;;4992560;28;20770;-68
2021/03/12 01:22:48;;;;;;;2.13;0.30;;;6.80;99.90;;;;;;4991917;28;20383;-68
2021/03/12 01:25:18;;;;;;;2.60;0.60;;;7.20;99.90;;;;;;4992605;28;20386;-67
2021/03/12 01:27:44;;;;;;;1.38;0.35;;;7.50;99.90;;;;;;4990940;28;20863;-68
2021/03/12 01:30:21;;;;;;;0.70;0.30;;;8.00;99.90;;;;;;4992119;28;20391;-67
2021/03/12 01:32:47;;;;;;;0.80;0.20;;;6.70;99.90;;;;;;5007358;28;20400;-68
2021/03/12 01:35:14;;;;;;;0.70;0.30;;;6.70;99.90;;;;;;5011327;28;20967;-68
2021/03/12 01:37:40;;;;;;;1.30;0.40;;;6.60;99.90;;;;;;5011240;28;20388;-68
2021/03/12 01:40:07;;;;;;;0.60;0.50;;;7.10;99.90;;;;;;5011945;28;20470;-68
2021/03/12 01:42:33;;;;;;;1.30;0.50;;;7.00;99.90;;;;;;5011837;28;20776;-68
2021/03/12 01:44:59;;;;;;;1.00;0.75;;;7.90;99.90;;;;;;5011265;28;20480;-68
2021/03/12 01:47:24;;;;;;;1.00;0.38;;;6.90;99.90;;;;;;5011776;28;20380;-67
2021/03/12 01:49:50;;;;;;;1.50;0.50;;;8.40;99.90;;;;;;5010763;28;20396;-68
2021/03/12 01:52:16;;;;;;;1.30;0.60;;;6.80;99.90;;;;;;5011999;28;20377;-68
2021/03/12 01:54:41;;;;;;;0.90;0.30;;;7.50;99.90;;;;;;5010671;28;20400;-68
2021/03/12 01:57:07;;;;;;;1.77;0.60;;;7.60;99.90;;;;;;5011336;28;20404;-67
2021/03/12 01:59:33;;;;;;;2.63;0.60;;;6.40;99.90;;;;;;5011567;28;20401;-68
2021/03/12 02:02:00;;;;;;;1.70;0.60;;;7.00;99.90;;;;;;5010785;28;20381;-68
2021/03/12 02:04:26;;;;;;;2.40;0.50;;;7.70;99.90;;;;;;5011503;28;20420;-68
2021/03/12 02:06:52;;;;;;;3.00;0.80;;;7.90;99.90;;;;;;5010687;28;20388;-68
2021/03/12 02:09:19;;;;;;;1.10;0.60;;;7.40;99.90;;;;;;5026680;28;20885;-68
2021/03/12 02:12:02;;;;;;;2.35;0.40;;;8.00;99.90;;;;;;5010545;28;20377;-68
2021/03/12 02:14:47;;;;;;;3.70;0.60;;;7.40;99.90;;;;;;5011550;28;20466;-68
2021/03/12 02:17:23;;;;;;;1.20;0.60;;;8.10;99.90;;;;;;5011046;28;20884;-68
2021/03/12 02:20:08;;;;;;;2.97;0.52;;;7.70;99.90;;;;;;5010537;28;20885;-67
2021/03/12 02:22:37;;;;;;;0.80;0.60;;;7.00;99.90;;;;;;5011269;28;20389;-68
2021/03/12 02:25:14;;;;;;;1.95;0.68;;;7.50;99.90;;;;;;5010990;28;20400;-68
2021/03/12 02:27:42;;;;;;;1.80;0.50;;;7.10;99.90;;;;;;5010398;28;20408;-72
2021/03/12 02:30:08;;;;;;;1.50;0.60;;;7.80;99.90;;;;;;5011161;28;20564;-69
2021/03/12 02:32:41;;;;;;;2.00;0.50;;;6.90;99.90;;;;;;4997390;28;20501;-68
2021/03/12 02:35:27;;;;;;;1.92;0.50;;;7.50;99.90;;;;;;4991107;28;20468;-67
2021/03/12 02:37:54;;;;;;;2.50;0.70;;;7.30;99.90;;;;;;4990348;28;20732;-69
2021/03/12 02:40:21;;;;;;;4.88;1.20;;;6.70;99.90;;;;;;4990923;28;20502;-71
2021/03/12 02:42:48;;;;;;;0.80;0.60;;;6.80;99.90;;;;;;4990564;28;20532;-71
2021/03/12 02:45:19;;;;;;;1.57;0.50;;;6.30;99.90;;;;;;5006281;28;20437;-69
2021/03/12 02:47:45;;;;;;;2.05;0.70;;;5.90;99.90;;;;;;4990321;28;20383;-70
2021/03/12 02:50:11;;;;;;;1.17;0.70;;;6.50;99.90;;;;;;5006052;28;20395;-70
2021/03/12 02:52:37;;;;;;;0.60;0.45;;;6.10;99.90;;;;;;4990864;28;20386;-67
2021/03/12 02:55:05;;;;;;;1.37;0.70;;;6.30;99.90;;;;;;4990283;28;20464;-68
2021/03/12 02:57:31;;;;;;;1.90;0.70;;;5.90;99.90;;;;;;4991025;28;20728;-68
2021/03/12 02:59:57;;;;;;;0.90;0.50;;;6.30;99.90;;;;;;4990247;28;20418;-68
2021/03/12 03:02:25;;;;;;;1.92;0.57;;;6.40;99.90;;;;;;4990756;28;20383;-69
2021/03/12 03:04:52;;;;;;;0.80;0.30;;;6.60;99.90;;;;;;4990347;28;20748;-69
2021/03/12 03:07:20;;;;;;;2.92;0.60;;;6.40;99.90;;;;;;4991172;28;20391;-70
2021/03/12 03:09:46;;;;;;;1.40;0.70;;;6.60;99.90;;;;;;4990434;28;20393;-70
2021/03/12 03:12:16;;;;;;;4.40;0.88;;;5.80;99.90;;;;;;5006140;28;20871;-70
2021/03/12 03:14:45;;;;;;;2.70;0.50;;;6.80;99.90;;;;;;4990712;28;20441;-72
2021/03/12 03:17:12;;;;;;;1.48;0.50;;;6.50;99.90;;;;;;4990986;28;20385;-69
2021/03/12 03:19:40;;;;;;;3.58;0.90;;;6.10;99.90;;;;;;4990971;28;20396;-69
2021/03/12 03:22:06;;;;;;;1.10;0.60;;;6.70;99.90;;;;;;4990175;28;20394;-69
2021/03/12 03:24:32;;;;;;;0.80;0.40;;;7.50;99.90;;;;;;4991070;28;20413;-70
2021/03/12 03:26:58;;;;;;;3.13;0.80;;;6.70;99.90;;;;;;4990104;28;20422;-69
2021/03/12 03:29:24;;;;;;;1.10;0.50;;;6.00;99.90;;;;;;4990678;28;20383;-69
2021/03/12 03:31:50;;;;;;;1.70;0.50;;;7.10;99.90;;;;;;4997857;28;20475;-69
2021/03/12 03:34:16;;;;;;;0.50;0.40;;;5.90;99.90;;;;;;5025683;28;20385;-69
2021/03/12 03:36:42;;;;;;;0.80;0.50;;;6.60;99.90;;;;;;5010542;28;20447;-72
2021/03/12 03:39:08;;;;;;;0.70;0.30;;;6.60;99.90;;;;;;5009919;28;20385;-69
2021/03/12 03:41:42;;;;;;;1.00;0.60;;;7.10;99.90;;;;;;5010364;28;20808;-69
2021/03/12 03:44:10;;;;;;;1.88;0.50;;;6.80;99.90;;;;;;5025159;28;20423;-69
2021/03/12 03:46:40;;;;;;;1.30;0.43;;;6.60;99.90;;;;;;5010038;28;20912;-70
2021/03/12 03:49:08;;;;;;;0.63;0.30;;;6.50;99.90;;;;;;5009594;28;20396;-70
2021/03/12 03:51:33;;;;;;;2.00;0.60;;;6.60;99.90;;;;;;5011398;28;20389;-69
2021/03/12 03:54:01;;;;;;;1.98;0.40;;;6.90;99.90;;;;;;5013041;28;20377;-70
2021/03/12 03:56:28;;;;;;;0.80;0.50;;;6.30;99.90;;;;;;5013506;28;20397;-69
2021/03/12 03:58:54;;;;;;;2.00;0.50;;;7.10;99.90;;;;;;5012598;28;20746;-68
2021/03/12 04:01:21;;;;;;;1.50;0.50;;;6.90;99.90;;;;;;5013761;28;20456;-68
2021/03/12 04:03:50;;;;;;;0.60;0.50;;;6.80;99.90;;;;;;5012852;28;20387;-71
2021/03/12 04:06:16;;;;;;;2.10;0.40;;;6.40;99.90;;;;;;5013784;28;20385;-68
2021/03/12 04:08:43;;;;;;;0.80;0.40;;;6.80;99.90;;;;;;5013296;28;20773;-68
2021/03/12 04:11:09;;;;;;;2.30;0.60;;;6.90;99.90;;;;;;5013231;28;20491;-68
2021/03/12 04:13:37;;;;;;;0.50;0.40;;;6.00;99.90;;;;;;5013372;28;20393;-69
2021/03/12 04:16:03;;;;;;;3.10;0.50;;;6.60;99.90;;;;;;5012683;28;20385;-69
2021/03/12 04:18:30;;;;;;;1.35;0.40;;;5.90;99.90;;;;;;5013155;28;20484;-68
2021/03/12 04:20:57;;;;;;;2.08;0.50;;;7.10;99.90;;;;;;5012307;28;20467;-68
2021/03/12 04:23:23;;;;;;;1.00;0.50;;;6.90;99.90;;;;;;5012959;28;20893;-68
2021/03/12 04:25:50;;;;;;;1.40;0.40;;;6.30;99.90;;;;;;5027584;28;20826;-68
2021/03/12 04:28:15;;;;;;;1.00;0.30;;;7.00;99.90;;;;;;5013028;28;20385;-68
2021/03/12 04:30:42;;;;;;;1.63;0.45;;;6.30;99.90;;;;;;5013205;28;20488;-68
2021/03/12 04:33:09;;;;;;;0.60;0.50;;;6.20;99.90;;;;;;4993869;28;21013;-69
2021/03/12 04:35:35;;;;;;;1.70;0.30;;;6.00;99.90;;;;;;4993193;28;20763;-69
2021/03/12 04:38:02;;;;;;;1.70;0.30;;;6.40;99.90;;;;;;4992620;28;20473;-69
2021/03/12 04:40:29;;;;;;;0.70;0.30;;;5.70;99.90;;;;;;5008385;28;20965;-69
2021/03/12 04:42:55;;;;;;;1.80;0.50;;;5.60;99.90;;;;;;4992379;28;20457;-69
2021/03/12 04:45:22;;;;;;;2.00;0.55;;;6.30;99.90;;;;;;5008721;28;20387;-69
2021/03/12 04:47:49;;;;;;;0.70;0.40;;;6.10;99.90;;;;;;4993021;28;20436;-74
2021/03/12 04:50:15;;;;;;;1.23;0.40;;;6.10;99.90;;;;;;5002264;28;20402;-71
2021/03/12 04:52:41;;;;;;;2.60;0.45;;;5.90;99.90;;;;;;5002054;28;20381;-71
2021/03/12 04:55:11;;;;;;;2.60;0.60;;;6.10;99.90;;;;;;4999995;28;20465;-71
2021/03/12 04:57:37;;;;;;;1.90;0.50;;;5.70;99.90;;;;;;4999272;28;20397;-71
2021/03/12 05:00:07;;;;;;;0.88;0.40;;;6.40;99.90;;;;;;4997909;28;20469;-71
2021/03/12 05:02:34;;;;;;;0.85;0.40;;;5.80;99.90;;;;;;4998899;28;20386;-70
2021/03/12 05:05:01;;;;;;;1.50;0.50;;;6.70;99.90;;;;;;4998406;28;20397;-70
2021/03/12 05:07:27;;;;;;;0.82;0.57;;;6.00;99.90;;;;;;5017952;28;20743;-70
2021/03/12 05:09:53;;;;;;;3.80;0.80;;;5.90;99.90;;;;;;4996374;28;20391;-69
2021/03/12 05:12:19;;;;;;;1.50;0.60;;;6.00;99.90;;;;;;4999382;28;20482;-71
2021/03/12 05:14:44;;;;;;;1.60;0.77;;;6.50;99.90;;;;;;4998959;28;20476;-70
2021/03/12 05:17:10;;;;;;;3.33;1.00;;;7.20;99.90;;;;;;4999422;28;20470;-70
2021/03/12 05:19:36;;;;;;;2.40;0.40;;;7.30;99.90;;;;;;4997941;28;20386;-71
2021/03/12 05:22:02;;;;;;;1.20;0.80;;;6.20;99.90;;;;;;4998545;28;20482;-69
2021/03/12 05:24:27;;;;;;;3.55;1.20;;;6.80;99.90;;;;;;5000775;28;20391;-70
2021/03/12 05:26:53;;;;;;;3.95;1.23;;;6.80;99.90;;;;;;4997131;28;20387;-70
2021/03/12 05:29:19;;;;;;;1.42;0.50;;;6.80;99.90;;;;;;4999237;28;20463;-71
2021/03/12 05:31:45;;;;;;;3.42;0.95;;;6.90;99.90;;;;;;5013630;28;20393;-70
2021/03/12 05:34:11;;;;;;;2.47;0.70;;;7.20;99.90;;;;;;4998679;28;20979;-71
2021/03/12 05:36:38;;;;;;;4.95;1.30;;;6.30;99.90;;;;;;5018729;28;20416;-70
2021/03/12 05:39:07;;;;;;;2.08;0.60;;;6.80;99.90;;;;;;5015615;28;20397;-70
2021/03/12 05:41:37;;;;;;;2.92;0.80;;;6.70;99.90;;;;;;5001466;28;20469;-70
2021/03/12 05:44:04;;;;;;;2.33;1.00;;;7.50;99.90;;;;;;4999719;28;20390;-71
2021/03/12 05:46:31;;;;;;;1.77;0.70;;;6.50;99.90;;;;;;4998970;28;20796;-71
2021/03/12 05:48:57;;;;;;;3.00;0.70;;;6.60;99.90;;;;;;5000947;28;20382;-72
2021/03/12 05:51:24;;;;;;;3.15;1.08;;;7.60;99.90;;;;;;5000506;28;20388;-72
2021/03/12 05:53:50;;;;;;;4.60;1.10;;;6.70;99.90;;;;;;4997561;28;20401;-74
2021/03/12 05:56:16;;;;;;;1.70;0.70;;;6.60;99.90;;;;;;5016618;28;20433;-72
2021/03/12 05:58:42;;;;;;;1.42;0.80;;;6.90;99.90;;;;;;5018921;28;20412;-72
2021/03/12 06:01:08;;;;;;;2.20;0.70;;;7.20;99.90;;;;;;4998870;28;20437;-71
2021/03/12 06:03:34;;;;;;;2.45;1.20;;;7.50;99.90;;;;;;4999532;28;20398;-72
2021/03/12 06:05:59;;;;;;;3.60;0.95;;;6.70;99.90;;;;;;5015132;28;20875;-72
2021/03/12 06:08:25;;;;;;;4.78;1.23;;;7.10;99.90;;;;;;5018999;28;20742;-71
2021/03/12 06:10:51;;;;;;;1.90;0.90;;;6.80;99.90;;;;;;4997666;28;20445;-74
2021/03/12 06:13:16;;;;;;;1.42;0.90;;;6.60;99.90;;;;;;4999583;28;20385;-71
2021/03/12 06:15:46;;;;;;;4.27;1.43;;;6.70;99.90;;;;;;4997726;28;20454;-71
2021/03/12 06:18:13;;;;;;;1.33;0.60;;;7.20;99.90;;;;;;5014410;28;20480;-71
2021/03/12 06:20:40;;;;;;;2.00;0.60;;;6.50;99.90;;;;;;4998494;28;20406;-71
2021/03/12 06:23:05;;;;;;;1.52;0.75;;;7.10;99.90;;;;;;4998852;28;20394;-71
2021/03/12 06:25:31;;;;;;;4.43;1.08;;;8.10;99.90;;;;;;4999714;28;20378;-71
2021/03/12 06:28:17;;;;;;;1.30;0.60;;;7.30;99.90;;;;;;5002104;28;20877;-72
2021/03/12 06:30:43;;;;;;;1.35;0.73;;;6.60;99.90;;;;;;4997769;28;20422;-70
2021/03/12 06:33:23;;;;;;;1.92;0.70;;;6.60;99.90;;;;;;4999304;28;20392;-71
2021/03/12 06:35:48;;;;;;;1.77;0.90;;;6.90;99.90;;;;;;5000742;28;20428;-72
2021/03/12 06:38:14;;;;;;;2.00;0.80;;;6.50;99.90;;;;;;4998219;28;21006;-71
2021/03/12 06:40:40;;;;;;;2.00;0.50;;;6.50;99.90;;;;;;5013849;28;20474;-72
2021/03/12 06:43:20;;;;;;;1.10;0.60;;;6.80;99.90;;;;;;5000389;28;20389;-71
2021/03/12 06:45:45;;;;;;;5.20;1.00;;;6.70;99.90;;;;;;5000900;28;20392;-73
2021/03/12 06:48:23;;;;;;;1.90;0.80;;;6.90;99.90;;;;;;4996441;28;20712;-71
2021/03/12 06:51:07;;;;;;;5.25;1.10;;;6.80;99.90;;;;;;4998597;28;20975;-70
2021/03/12 06:53:37;;;;;;;3.10;1.00;;;6.50;99.90;;;;;;4999656;28;20460;-71
2021/03/12 06:56:08;;;;;;;1.70;0.70;;;7.40;99.90;;;;;;4999652;28;20450;-72
2021/03/12 06:58:34;;;;;;;3.63;0.73;;;6.60;99.90;;;;;;4997180;28;20547;-68
2021/03/12 07:01:01;;;;;;;5.10;0.88;;;6.60;99.90;;;;;;5014582;28;20440;-71
2021/03/12 07:03:28;;;;;;;2.00;0.93;;;7.00;99.90;;;;;;5000252;28;20400;-73
2021/03/12 07:05:54;;;;;;;1.50;0.80;;;6.90;99.90;;;;;;4999230;28;20399;-74
2021/03/12 07:08:30;;;;;;;2.95;0.80;;;6.50;99.90;;;;;;4998296;28;20397;-70
2021/03/12 07:10:56;;;;;;;1.48;0.57;;;6.80;99.90;;;;;;5015727;28;20401;-74
2021/03/12 07:13:22;;;;;;;1.70;1.10;;;6.30;99.90;;;;;;4992984;28;20393;-73
2021/03/12 07:15:52;;;;;;;2.30;0.80;;;6.70;99.90;;;;;;4993926;28;21621;-74
2021/03/12 07:18:18;;;;;;;1.40;0.70;;;7.10;99.90;;;;;;4994051;28;20533;-73
2021/03/12 07:20:44;;;;;;;3.47;1.08;;;6.60;99.90;;;;;;5000829;28;20496;-71
2021/03/12 07:23:11;;;;;;;4.20;0.80;;;6.50;99.90;;;;;;4997304;28;20397;-71
2021/03/12 07:25:41;;;;;;;2.40;1.00;;;6.80;99.90;;;;;;5001707;28;20385;-71
2021/03/12 07:28:07;;;;;;;2.00;0.85;;;7.10;99.90;;;;;;5001260;28;20753;-72
2021/03/12 07:30:38;;;;;;;1.30;0.60;;;7.20;99.90;;;;;;5017498;28;20409;-71
2021/03/12 07:33:05;;;;;;;2.10;0.60;;;6.60;99.90;;;;;;5001082;28;20457;-73
2021/03/12 07:35:33;;;;;;;2.30;0.70;;;7.10;99.90;;;;;;5016189;28;20415;-72
2021/03/12 07:38:00;;;;;;;3.22;0.60;;;6.90;99.90;;;;;;5002946;28;20385;-74
2021/03/12 07:40:27;;;;;;;1.35;0.50;;;7.20;99.90;;;;;;5000649;28;20429;-72
2021/03/12 07:42:54;;;;;;;2.00;0.80;;;6.90;99.90;;;;;;5002139;28;20396;-72
2021/03/12 07:45:21;;;;;;;4.40;1.00;;;6.50;99.90;;;;;;5000601;28;20940;-70
2021/03/12 07:47:47;;;;;;;1.70;0.80;;;7.00;99.90;;;;;;4999992;28;20447;-74
2021/03/12 07:50:36;;;;;;;3.47;0.90;;;7.80;99.90;;;;;;4993030;28;20396;-72
2021/03/12 07:53:03;;;;;;;4.93;1.10;;;6.40;99.90;;;;;;5002257;28;20389;-71
2021/03/12 07:55:35;;;;;;;1.80;0.50;;;6.90;99.90;;;;;;5001745;28;20905;-71
2021/03/12 07:58:02;;;;;;;2.30;0.82;;;7.00;99.90;;;;;;5000645;28;20463;-75
2021/03/12 08:00:28;;;;;;;3.58;1.10;;;7.20;99.90;;;;;;5001753;28;20428;-72
2021/03/12 08:02:57;;;;;;;6.03;0.70;;;7.50;99.90;;;;;;5001700;28;20496;-72
2021/03/12 08:05:45;;;;;;;2.00;1.30;;;7.90;99.90;;;;;;5000495;28;20913;-74
2021/03/12 08:08:49;;;;;;;4.45;1.08;;;7.30;99.90;;;;;;4998647;28;20488;-74
2021/03/12 08:11:28;;;;;;;3.22;0.90;;;7.30;99.90;;;;;;4996436;28;20412;-74
2021/03/12 08:14:16;;;;;;;2.97;0.80;;;7.20;99.90;;;;;;4996724;28;20415;-72
2021/03/12 08:16:57;;;;;;;2.30;1.10;;;7.10;99.90;;;;;;5010202;28;20479;-73
2021/03/12 08:19:29;;;;;;;3.95;1.25;;;7.80;99.90;;;;;;5001975;28;20447;-74
2021/03/12 08:21:55;;;;;;;6.53;1.10;;;7.80;99.90;;;;;;5002529;28;20988;-75
2021/03/12 08:24:47;;;;;;;1.98;0.70;;;8.00;99.90;;;;;;5000942;28;20476;-72
2021/03/12 08:27:35;;;;;;;1.95;1.08;;;7.70;99.90;;;;;;5001413;28;20405;-73
2021/03/12 08:30:01;;;;;;;4.00;0.63;;;8.10;99.90;;;;;;5000770;28;20405;-72
2021/03/12 08:32:47;;;;;;;5.55;0.80;;;7.80;99.90;;;;;;5003075;28;20402;-76
2021/03/12 08:35:40;;;;;;;1.30;0.82;;;8.30;99.90;;;;;;5017169;28;21119;-71
2021/03/12 08:38:26;;;;;;;1.92;0.75;;;8.00;99.90;;;;;;4996743;28;20440;-72
2021/03/12 08:40:56;;;;;;;3.22;0.80;;;8.50;99.90;;;;;;5002047;28;20428;-72
2021/03/12 08:43:25;;;;;;;2.47;0.70;;;7.60;99.90;;;;;;5000393;28;20393;-72
2021/03/12 08:45:58;;;;;;;0.80;0.50;;;8.50;99.90;;;;;;5002857;28;20385;-72
2021/03/12 08:48:30;;;;;;;2.40;0.80;;;8.10;99.90;;;;;;5000323;28;20491;-71
2021/03/12 08:51:08;;;;;;;1.50;0.90;;;8.30;99.90;;;;;;5001068;28;20401;-73
2021/03/12 08:53:36;;;;;;;1.85;0.80;;;8.00;99.90;;;;;;5016427;28;20479;-71
2021/03/12 08:56:04;;;;;;;2.80;1.00;;;9.30;99.90;;;;;;5003397;28;20400;-70
2021/03/12 08:58:31;;;;;;;2.90;0.63;;;8.20;99.90;;;;;;5000062;28;20455;-72
2021/03/12 09:00:59;;;;;;;3.78;0.80;;;8.80;99.90;;;;;;5001244;28;20508;-75
2021/03/12 09:03:30;;;;;;;3.53;0.63;;;8.50;99.90;;;;;;5003646;28;20469;-72
2021/03/12 09:06:08;;;;;;;3.07;0.70;;;8.40;99.90;;;;;;5002496;28;20381;-75
2021/03/12 09:08:39;;;;;;;4.15;0.90;;;8.50;99.90;;;;;;4999146;28;20385;-71
2021/03/12 09:11:07;;;;;;;1.40;0.70;;;8.40;99.90;;;;;;5000444;28;20789;-70
2021/03/12 09:13:34;;;;;;;5.25;0.77;;;8.70;99.90;;;;;;5003470;28;20385;-72
2021/03/12 09:16:04;;;;;;;1.98;0.80;;;8.10;99.90;;;;;;5016498;28;20397;-68
2021/03/12 09:18:30;;;;;;;2.58;0.80;;;8.90;99.90;;;;;;4999042;28;20616;-71
2021/03/12 09:21:02;;;;;;;10.45;4.38;;;8.70;99.90;;;;;;5000304;28;20838;-72
2021/03/12 09:23:40;;;;;;;3.63;1.30;;;9.10;99.90;;;;;;5002093;28;20531;-68
2021/03/12 09:26:13;;;;;;;2.65;0.80;;;8.80;99.90;;;;;;5000944;28;20864;-70
2021/03/12 09:28:41;;;;;;;4.00;0.80;;;9.00;99.20;;;;;;4999571;28;20416;-68
2021/03/12 09:31:08;;;;;;;2.67;1.60;;;8.80;99.90;;;;;;5001763;28;20790;-69
2021/03/12 09:33:38;;;;;;;2.42;0.95;;;8.90;99.90;;;;;;5001517;28;20471;-68
2021/03/12 09:36:22;;;;;;;1.38;0.80;;;9.30;99.90;;;;;;5014931;28;20843;-71
2021/03/12 09:38:48;;;;;;;1.50;0.60;;;9.10;99.90;;;;;;5015172;28;20503;-68
2021/03/12 09:41:21;;;;;;;2.40;0.80;;;9.20;99.90;;;;;;5000209;28;20447;-70
2021/03/12 09:44:07;;;;;;;2.47;0.77;;;9.90;98.10;;;;;;5001180;28;20431;-68
2021/03/12 09:46:35;;;;;;;1.85;0.60;;;9.40;99.90;;;;;;5000428;28;20392;-68
2021/03/12 09:49:07;;;;;;;1.58;0.63;;;9.40;99.70;;;;;;4997073;28;20808;-72
2021/03/12 09:51:33;;;;;;;2.00;0.70;;;9.40;99.90;;;;;;5001326;28;20927;-69
2021/03/12 09:54:01;;;;;;;5.75;1.00;;;9.50;99.90;;;;;;4999939;28;20396;-72
2021/03/12 09:56:27;;;;;;;2.67;1.15;;;9.50;99.90;;;;;;5000391;28;20404;-69
2021/03/12 09:58:53;;;;;;;2.80;1.00;;;9.40;99.90;;;;;;5000934;28;20474;-70
2021/03/12 10:01:20;;;;;;;4.43;0.88;;;9.30;99.90;;;;;;4999117;28;20420;-67
2021/03/12 10:03:47;;;;;;;2.20;0.80;;;9.40;99.90;;;;;;5001349;28;20475;-71
2021/03/12 10:06:14;;;;;;;4.47;1.05;;;9.80;99.90;;;;;;5001473;28;20399;-70
2021/03/12 10:09:02;;;;;;;1.95;1.10;;;9.90;99.90;;;;;;5014255;28;20400;-69
2021/03/12 10:11:58;;;;;;;2.22;0.68;;;10.40;97.70;;;;;;4999796;28;20880;-68
2021/03/12 10:14:31;;;;;;;1.40;0.70;;;10.20;99.90;;;;;;4994541;28;20914;-68
2021/03/12 10:17:10;;;;;;;2.00;0.85;;;9.60;98.60;;;;;;5000820;28;20393;-70
2021/03/12 10:19:55;;;;;;;3.20;0.80;;;9.80;96.90;;;;;;5002500;28;20450;-68
2021/03/12 10:22:37;;;;;;;2.20;0.82;;;9.30;99.20;;;;;;5001199;28;20411;-70
2021/03/12 10:25:11;;;;;;;1.90;0.60;;;9.40;98.00;;;;;;5001608;28;20404;-67
2021/03/12 10:27:57;;;;;;;1.20;0.73;;;9.80;97.30;;;;;;5000199;28;20412;-67
2021/03/12 10:30:32;;;;;;;2.30;0.90;;;10.10;98.70;;;;;;4998181;28;20435;-67
2021/03/12 10:33:05;;;;;;;1.45;0.70;;;9.90;99.90;;;;;;4998896;28;20395;-73
2021/03/12 10:35:34;;;;;;;2.75;0.90;;;9.80;99.90;;;;;;5001994;28;20383;-71
2021/03/12 10:38:04;;;;;;;4.90;0.70;;;9.70;97.40;;;;;;5000310;28;20411;-69
2021/03/12 10:40:37;;;;;;;2.47;0.73;;;10.00;96.00;;;;;;4999290;28;20420;-73
2021/03/12 10:43:32;;;;;;;4.95;1.02;;;9.80;99.90;;;;;;5001191;28;20436;-70
2021/03/12 10:46:10;;;;;;;3.20;0.80;;;10.00;99.20;;;;;;5001574;28;20416;-76
2021/03/12 10:48:41;;;;;;;1.90;0.82;;;10.30;94.90;;;;;;5000070;28;20404;-76
2021/03/12 10:51:08;;;;;;;3.58;0.80;;;10.20;99.90;;;;;;4999577;28;20408;-70
2021/03/12 10:53:43;;;;;;;1.50;0.60;;;10.20;96.70;;;;;;5007815;28;20393;-71
2021/03/12 10:56:09;;;;;;;4.00;1.33;;;10.30;95.60;;;;;;4999970;28;20400;-70
2021/03/12 10:58:37;;;;;;;6.85;1.10;;;10.10;98.60;;;;;;5015091;28;20762;-71
2021/03/12 11:01:19;;;;;;;2.58;0.70;;;10.10;97.50;;;;;;5000684;28;20479;-71
2021/03/12 11:03:46;;;;;;;1.20;0.60;;;10.30;94.40;;;;;;5004747;28;20392;-72
2021/03/12 11:06:13;;;;;;;2.10;0.90;;;10.60;95.70;;;;;;5005004;28;20419;-70
2021/03/12 11:08:39;;;;;;;4.40;1.10;;;10.50;94.90;;;;;;5002668;28;20393;-69
2021/03/12 11:11:07;;;;;;;1.50;0.50;;;10.60;95.60;;;;;;5003021;28;20905;-70
2021/03/12 11:13:38;;;;;;;2.38;0.50;;;10.20;96.90;;;;;;5003858;28;20471;-70
2021/03/12 11:16:04;;;;;;;1.65;0.60;;;10.50;95.80;;;;;;5003306;28;20519;-69
2021/03/12 11:18:31;;;;;;;1.00;0.55;;;10.80;94.70;;;;;;5002371;28;20397;-72
2021/03/12 11:21:01;;;;;;;2.45;0.90;;;10.10;94.80;;;;;;5003802;28;20499;-74
2021/03/12 11:23:27;;;;;;;4.57;0.85;;;10.50;95.50;;;;;;5004045;28;20381;-68
2021/03/12 11:25:54;;;;;;;3.03;0.70;;;10.40;94.90;;;;;;5003623;28;20416;-69
2021/03/12 11:28:20;;;;;;;2.83;0.70;;;10.90;95.60;;;;;;5003607;28;20393;-69
2021/03/12 11:30:46;;;;;;;2.25;0.85;;;10.90;94.70;;;;;;5003428;28;21051;-68
2021/03/12 11:33:12;;;;;;;3.53;0.70;;;10.80;96.80;;;;;;5001299;28;20496;-69
2021/03/12 11:35:38;;;;;;;1.00;0.70;;;11.00;98.10;;;;;;5003852;28;20392;-73
2021/03/12 11:38:06;;;;;;;2.00;1.00;;;11.20;94.50;;;;;;5003505;28;20393;-73
2021/03/12 11:40:32;;;;;;;2.85;0.75;;;12.40;92.40;;;;;;5002556;28;20424;-73
2021/03/12 11:42:58;;;;;;;2.90;0.80;;;12.40;97.30;;;;;;5004570;28;20489;-68
2021/03/12 11:45:24;;;;;;;4.18;0.80;;;12.60;90.90;;;;;;5013360;28;20905;-69
2021/03/12 11:47:53;;;;;;;2.90;0.70;;;11.90;92.30;;;;;;5012985;28;20579;-70
2021/03/12 11:50:19;;;;;;;3.10;0.80;;;11.90;97.60;;;;;;5012203;28;20637;-69
2021/03/12 11:52:47;;;;;;;1.80;0.70;;;11.80;93.30;;;;;;5012705;28;20388;-69
2021/03/12 11:55:13;;;;;;;2.47;1.00;;;12.30;92.70;;;;;;5011649;28;20884;-69
2021/03/12 11:57:39;;;;;;;1.40;0.75;;;11.20;96.00;;;;;;5012298;28;20939;-68
2021/03/12 12:00:09;;;;;;;1.25;0.60;;;12.20;97.70;;;;;;5011735;28;20420;-69
2021/03/12 12:02:35;;;;;;;2.85;1.00;;;12.50;94.70;;;;;;5012542;28;20789;-68
2021/03/12 12:05:02;;;;;;;1.48;0.50;;;12.80;93.50;;;;;;5011759;28;20377;-73
2021/03/12 12:07:28;;;;;;;1.20;0.70;;;12.70;91.60;;;;;;5014090;28;20524;-68
2021/03/12 12:09:54;;;;;;;1.45;0.60;;;13.00;91.10;;;;;;5012725;28;20440;-68
2021/03/12 12:12:20;;;;;;;2.53;0.80;;;13.00;90.90;;;;;;5011152;28;20400;-69
2021/03/12 12:14:46;;;;;;;1.60;0.50;;;12.70;95.20;;;;;;5012701;28;20484;-69
2021/03/12 12:17:12;;;;;;;1.60;0.80;;;13.80;90.20;;;;;;5011859;28;20388;-69
2021/03/12 12:19:40;;;;;;;1.65;0.80;;;14.00;86.80;;;;;;5012996;28;20462;-68
2021/03/12 12:22:06;;;;;;;4.47;1.30;;;14.10;90.70;;;;;;5012039;28;20768;-69
2021/03/12 12:24:33;;;;;;;2.00;0.80;;;14.30;84.70;;;;;;5012551;28;20388;-70
2021/03/12 12:27:05;;;;;;;1.90;0.85;;;14.40;81.50;;;;;;5012290;28;20719;-71
2021/03/12 12:29:33;;;;;;;2.90;0.90;;;14.90;75.00;;;;;;5012318;28;20994;-68
2021/03/12 12:32:00;;;;;;;1.80;0.80;;;15.00;71.30;;;;;;5003293;28;20385;-68
2021/03/12 12:34:26;;;;;;;3.13;0.90;;;13.90;76.80;;;;;;4991153;28;20397;-68
2021/03/12 12:36:53;;;;;;;0.73;0.45;;;14.50;77.30;;;;;;4993090;28;20419;-68
2021/03/12 12:39:20;;;;;;;3.80;0.70;;;14.10;76.90;;;;;;4992639;28;20402;-71
2021/03/12 12:41:47;;;;;;;2.10;1.10;;;13.30;74.80;;;;;;4993104;28;20411;-69
2021/03/12 12:44:14;;;;;;;2.80;0.87;;;13.20;72.90;;;;;;4991167;28;20386;-69
2021/03/12 12:46:41;;;;;;;1.00;0.52;;;12.00;75.10;;;;;;4992751;28;20470;-69
2021/03/12 12:49:07;;;;;;;3.03;0.80;;;10.70;92.80;;;;;;5007464;28;20481;-72
2021/03/12 12:51:33;;;;;;;1.90;0.60;;;10.20;99.90;;;;;;4993031;28;20482;-67
2021/03/12 12:54:00;;;;;;;3.38;0.88;;;10.60;99.50;;;;;;4992435;28;20390;-67
2021/03/12 12:56:25;;;;;;;1.08;0.60;;;12.10;99.90;;;;;;4992157;28;20401;-67
2021/03/12 12:58:51;;;;;;;3.37;0.60;;;13.20;94.70;;;;;;4997572;28;20401;-68
2021/03/12 13:01:17;;;;;;;2.30;0.57;;;13.20;93.90;;;;;;5003437;28;20483;-68
2021/03/12 13:03:43;;;;;;;2.17;0.70;;;13.20;97.60;;;;;;5003659;28;20420;-73
2021/03/12 13:06:26;;;;;;;2.10;0.70;;;13.40;93.40;;;;;;5002694;28;20943;-69